Time;durP1;ratioP1;P1;durP2;ratioP2;P2;SDS_P1;SDS_P2;PMS_P1;PMS_P2;Temp;Humidity;BMP_temperature;BMP_pressure;BME280_temperature;BME280_humidity;BME280_pressure;Samples;Min_cycle;Max_cycle;Signal;HPM_P1;HPM_P2
2023/04/24 00:00:33;;;;;;;3.10;0.52;;;;;;;;;;5009623;28;20467;-60
2023/04/24 00:03:00;;;;;;;2.28;0.57;;;;;;;;;;5024100;28;20033;-61
2023/04/24 00:05:27;;;;;;;2.83;0.82;;;;;;;;;;5009478;28;20137;-58
2023/04/24 00:07:55;;;;;;;3.50;0.98;;;;;;;;;;5007747;28;20041;-61
2023/04/24 00:10:21;;;;;;;3.40;0.68;;;;;;;;;;5008717;28;20049;-60
2023/04/24 00:12:48;;;;;;;3.03;0.50;;;;;;;;;;5008363;28;20313;-63
2023/04/24 00:15:15;;;;;;;4.40;0.30;;;;;;;;;;5009322;28;20049;-64
2023/04/24 00:17:42;;;;;;;4.32;0.50;;;;;;;;;;5023969;28;20054;-64
2023/04/24 00:20:10;;;;;;;3.42;0.68;;;;;;;;;;5025208;28;20038;-62
2023/04/24 00:22:36;;;;;;;1.33;0.43;;;;;;;;;;5010404;28;20469;-64
2023/04/24 00:25:03;;;;;;;3.10;0.65;;;;;;;;;;5009770;28;20050;-63
2023/04/24 00:27:30;;;;;;;1.60;0.57;;;;;;;;;;5007557;28;20748;-63
2023/04/24 00:29:57;;;;;;;2.50;0.65;;;;;;;;;;5011042;28;20067;-59
2023/04/24 00:32:23;;;;;;;2.38;0.70;;;;;;;;;;5008293;28;20068;-57
2023/04/24 00:34:50;;;;;;;2.80;0.63;;;;;;;;;;5010871;28;20068;-62
2023/04/24 00:37:16;;;;;;;2.10;0.60;;;;;;;;;;5010372;28;20071;-54
2023/04/24 00:39:43;;;;;;;3.05;0.60;;;;;;;;;;5009333;28;20418;-55
2023/04/24 00:42:10;;;;;;;5.80;0.75;;;;;;;;;;5007518;28;20457;-62
2023/04/24 00:44:37;;;;;;;1.45;0.50;;;;;;;;;;5007095;28;20543;-61
2023/04/24 00:47:04;;;;;;;1.95;0.55;;;;;;;;;;5007967;28;20594;-60
2023/04/24 00:49:31;;;;;;;1.80;0.50;;;;;;;;;;5023368;28;20045;-61
2023/04/24 00:51:59;;;;;;;3.92;0.60;;;;;;;;;;5007507;28;20479;-60
2023/04/24 00:54:25;;;;;;;1.90;0.60;;;;;;;;;;5008863;28;20049;-60
2023/04/24 00:56:52;;;;;;;3.97;0.75;;;;;;;;;;5008492;28;21879;-59
2023/04/24 00:59:19;;;;;;;2.28;0.60;;;;;;;;;;5010330;28;20503;-60
2023/04/24 01:01:46;;;;;;;1.75;0.50;;;;;;;;;;5007753;28;20049;-61
2023/04/24 01:04:13;;;;;;;1.55;0.50;;;;;;;;;;5007658;28;20054;-62
2023/04/24 01:06:40;;;;;;;3.15;0.68;;;;;;;;;;5005690;28;20144;-60
2023/04/24 01:09:08;;;;;;;3.25;0.70;;;;;;;;;;5008032;28;20037;-60
2023/04/24 01:11:35;;;;;;;3.17;0.60;;;;;;;;;;5022506;28;20060;-61
2023/04/24 01:14:02;;;;;;;2.58;0.43;;;;;;;;;;5006979;28;20045;-58
2023/04/24 01:16:29;;;;;;;3.20;0.63;;;;;;;;;;5004774;28;20047;-59
2023/04/24 01:18:56;;;;;;;2.90;0.52;;;;;;;;;;5010164;28;20137;-63
2023/04/24 01:21:24;;;;;;;2.42;0.50;;;;;;;;;;5009450;28;20046;-63
2023/04/24 01:23:51;;;;;;;1.83;0.40;;;;;;;;;;5008913;28;20486;-61
2023/04/24 01:26:19;;;;;;;1.90;0.60;;;;;;;;;;5007628;28;21050;-63
2023/04/24 01:28:47;;;;;;;1.80;0.50;;;;;;;;;;5007096;28;20156;-62
2023/04/24 01:31:13;;;;;;;2.42;0.50;;;;;;;;;;5009065;28;20521;-61
2023/04/24 01:33:41;;;;;;;6.70;0.82;;;;;;;;;;5008066;28;20034;-61
2023/04/24 01:36:09;;;;;;;2.22;0.50;;;;;;;;;;5007240;28;20085;-62
2023/04/24 01:38:36;;;;;;;7.55;0.70;;;;;;;;;;5021548;28;21777;-60
2023/04/24 01:41:03;;;;;;;8.27;0.60;;;;;;;;;;5008032;28;20052;-58
2023/04/24 01:43:30;;;;;;;1.73;0.40;;;;;;;;;;5007909;28;20048;-59
2023/04/24 01:45:57;;;;;;;4.70;0.60;;;;;;;;;;5006872;28;20589;-62
2023/04/24 01:48:23;;;;;;;2.70;0.50;;;;;;;;;;5006521;28;20081;-58
2023/04/24 01:50:50;;;;;;;4.53;0.47;;;;;;;;;;5009067;28;20985;-57
2023/04/24 01:53:17;;;;;;;2.67;0.50;;;;;;;;;;5007822;28;20073;-62
2023/04/24 01:55:44;;;;;;;2.95;0.60;;;;;;;;;;5008461;28;20084;-56
2023/04/24 01:58:10;;;;;;;2.10;0.70;;;;;;;;;;5007524;28;20033;-59
2023/04/24 02:00:37;;;;;;;2.78;0.63;;;;;;;;;;5006504;28;20457;-59
2023/04/24 02:03:03;;;;;;;1.60;0.50;;;;;;;;;;5007273;28;20856;-57
2023/04/24 02:05:30;;;;;;;4.80;0.68;;;;;;;;;;5007322;28;20045;-58
2023/04/24 02:07:57;;;;;;;1.55;0.45;;;;;;;;;;5006933;28;20045;-59
2023/04/24 02:10:25;;;;;;;2.92;0.65;;;;;;;;;;5005985;28;20384;-63
2023/04/24 02:12:52;;;;;;;1.92;0.50;;;;;;;;;;5007208;28;20511;-58
2023/04/24 02:15:18;;;;;;;3.40;0.65;;;;;;;;;;5007708;28;20049;-59
2023/04/24 02:17:45;;;;;;;1.83;0.60;;;;;;;;;;5005650;28;20482;-60
2023/04/24 02:20:12;;;;;;;2.55;0.85;;;;;;;;;;5007006;28;20091;-59
2023/04/24 02:22:39;;;;;;;1.92;0.63;;;;;;;;;;5005224;28;20053;-57
2023/04/24 02:25:06;;;;;;;2.72;0.80;;;;;;;;;;5006996;28;20083;-62
2023/04/24 02:27:33;;;;;;;4.10;0.88;;;;;;;;;;5009627;28;20092;-60
2023/04/24 02:30:00;;;;;;;8.30;0.95;;;;;;;;;;5011465;28;20111;-59
2023/04/24 02:32:27;;;;;;;2.53;0.70;;;;;;;;;;5010071;28;20132;-59
2023/04/24 02:34:53;;;;;;;4.03;0.80;;;;;;;;;;5026427;28;20544;-60
2023/04/24 02:37:20;;;;;;;4.63;0.80;;;;;;;;;;5009466;28;20053;-65
2023/04/24 02:39:47;;;;;;;4.15;0.95;;;;;;;;;;5011372;28;20614;-62
2023/04/24 02:42:13;;;;;;;5.05;0.93;;;;;;;;;;5011603;28;20072;-59
2023/04/24 02:44:40;;;;;;;4.85;0.98;;;;;;;;;;5010740;28;20053;-57
2023/04/24 02:47:08;;;;;;;3.58;0.70;;;;;;;;;;5010342;28;20044;-59
2023/04/24 02:49:35;;;;;;;3.25;1.10;;;;;;;;;;5008912;28;20125;-56
2023/04/24 02:52:04;;;;;;;5.78;1.30;;;;;;;;;;5012697;28;20046;-61
2023/04/24 02:54:31;;;;;;;8.10;1.50;;;;;;;;;;5010313;28;20045;-59
2023/04/24 02:56:58;;;;;;;3.13;1.10;;;;;;;;;;5009978;28;20153;-59
2023/04/24 02:59:26;;;;;;;5.72;1.20;;;;;;;;;;5010194;28;20045;-57
2023/04/24 03:01:53;;;;;;;3.55;0.80;;;;;;;;;;5011595;28;20129;-53
2023/04/24 03:04:20;;;;;;;8.20;1.10;;;;;;;;;;5009912;28;20287;-58
2023/04/24 03:06:46;;;;;;;8.52;1.55;;;;;;;;;;5007644;28;20416;-56
2023/04/24 03:09:13;;;;;;;3.40;1.30;;;;;;;;;;5010077;28;20190;-56
2023/04/24 03:11:40;;;;;;;8.93;1.55;;;;;;;;;;5008031;28;20042;-58
2023/04/24 03:14:07;;;;;;;6.28;1.20;;;;;;;;;;5009024;28;20045;-56
2023/04/24 03:16:34;;;;;;;2.92;0.85;;;;;;;;;;5007485;28;20048;-58
2023/04/24 03:19:00;;;;;;;6.50;1.20;;;;;;;;;;5008701;28;20074;-58
2023/04/24 03:21:27;;;;;;;3.97;1.35;;;;;;;;;;5010226;28;20052;-59
2023/04/24 03:23:54;;;;;;;5.00;1.13;;;;;;;;;;5009981;28;20038;-56
2023/04/24 03:26:21;;;;;;;3.47;1.10;;;;;;;;;;5007231;28;20188;-55
2023/04/24 03:28:47;;;;;;;7.65;1.30;;;;;;;;;;5008220;28;20049;-56
2023/04/24 03:31:15;;;;;;;3.83;1.10;;;;;;;;;;5009394;28;20050;-55
2023/04/24 03:33:41;;;;;;;3.83;1.00;;;;;;;;;;5007850;28;20144;-55
2023/04/24 03:36:08;;;;;;;11.00;1.23;;;;;;;;;;5008026;28;20042;-60
2023/04/24 03:38:35;;;;;;;6.20;1.15;;;;;;;;;;5007741;28;20057;-56
2023/04/24 03:41:01;;;;;;;5.55;1.08;;;;;;;;;;5009628;28;20407;-57
2023/04/24 03:43:28;;;;;;;6.35;1.05;;;;;;;;;;5008267;28;20128;-56
2023/04/24 03:45:55;;;;;;;4.53;1.27;;;;;;;;;;5009020;28;20123;-57
2023/04/24 03:48:21;;;;;;;3.42;0.82;;;;;;;;;;5006328;28;20233;-56
2023/04/24 03:50:48;;;;;;;7.82;1.15;;;;;;;;;;5008802;28;20034;-56
2023/04/24 03:53:15;;;;;;;6.93;0.93;;;;;;;;;;5007148;28;20046;-57
2023/04/24 03:55:41;;;;;;;3.33;0.70;;;;;;;;;;5007512;28;20037;-55
2023/04/24 03:58:08;;;;;;;5.38;1.13;;;;;;;;;;5007580;28;20049;-57
2023/04/24 04:00:35;;;;;;;4.82;1.05;;;;;;;;;;5005576;28;20597;-57
2023/04/24 04:03:01;;;;;;;2.40;0.65;;;;;;;;;;5006017;28;20034;-57
2023/04/24 04:05:28;;;;;;;3.72;0.82;;;;;;;;;;5006618;28;20057;-58
2023/04/24 04:07:55;;;;;;;2.95;0.70;;;;;;;;;;5006531;28;20507;-57
2023/04/24 04:10:21;;;;;;;2.92;0.75;;;;;;;;;;5007534;28;20089;-55
2023/04/24 04:12:48;;;;;;;3.38;0.63;;;;;;;;;;5008064;28;20120;-56
2023/04/24 04:15:15;;;;;;;2.60;0.60;;;;;;;;;;5008168;28;20879;-57
2023/04/24 04:17:41;;;;;;;2.08;0.52;;;;;;;;;;5008819;28;20061;-55
2023/04/24 04:20:09;;;;;;;2.45;0.68;;;;;;;;;;5010214;28;20045;-56
2023/04/24 04:22:37;;;;;;;3.58;0.63;;;;;;;;;;5023400;28;20042;-57
2023/04/24 04:25:04;;;;;;;3.08;0.82;;;;;;;;;;5009513;28;20054;-54
2023/04/24 04:27:31;;;;;;;2.63;0.70;;;;;;;;;;5007011;28;20110;-55
2023/04/24 04:30:04;;;;;;;7.72;0.88;;;;;;;;;;5006845;28;20100;-52
2023/04/24 04:32:33;;;;;;;4.50;0.70;;;;;;;;;;5024509;28;20898;-57
2023/04/24 04:35:03;;;;;;;2.45;0.70;;;;;;;;;;5009486;28;20141;-58
2023/04/24 04:37:31;;;;;;;6.18;0.73;;;;;;;;;;5008494;28;20084;-55
2023/04/24 04:39:58;;;;;;;3.15;0.80;;;;;;;;;;5009611;28;20059;-56
2023/04/24 04:42:25;;;;;;;2.78;0.75;;;;;;;;;;5005511;28;20080;-55
2023/04/24 04:44:52;;;;;;;12.00;1.17;;;;;;;;;;5011045;28;20594;-57
2023/04/24 04:47:18;;;;;;;3.38;0.80;;;;;;;;;;5007737;28;20030;-55
2023/04/24 04:49:45;;;;;;;3.65;0.85;;;;;;;;;;5008485;28;20521;-54
2023/04/24 04:52:12;;;;;;;6.18;0.80;;;;;;;;;;5008860;28;20029;-57
2023/04/24 04:54:38;;;;;;;2.30;0.70;;;;;;;;;;5006505;28;20041;-57
2023/04/24 04:57:05;;;;;;;5.15;0.85;;;;;;;;;;5007650;28;20065;-57
2023/04/24 04:59:32;;;;;;;6.57;1.00;;;;;;;;;;5006723;28;20076;-57
2023/04/24 05:01:59;;;;;;;6.78;1.23;;;;;;;;;;5008281;28;20084;-57
2023/04/24 05:04:26;;;;;;;6.45;0.80;;;;;;;;;;5006367;28;20461;-56
2023/04/24 05:06:53;;;;;;;4.45;0.93;;;;;;;;;;5008674;28;20038;-57
2023/04/24 05:09:19;;;;;;;6.18;0.93;;;;;;;;;;5005925;28;20113;-59
2023/04/24 05:11:46;;;;;;;6.93;1.30;;;;;;;;;;5008262;28;20042;-57
2023/04/24 05:14:13;;;;;;;9.00;1.40;;;;;;;;;;5007232;28;20065;-56
2023/04/24 05:16:40;;;;;;;9.73;3.42;;;;;;;;;;5005987;28;20127;-56
2023/04/24 05:19:07;;;;;;;12.73;2.25;;;;;;;;;;5022790;28;20061;-57
2023/04/24 05:21:33;;;;;;;10.20;2.08;;;;;;;;;;5008262;28;20096;-60
2023/04/24 05:24:00;;;;;;;3.58;1.48;;;;;;;;;;5008085;28;20042;-55
2023/04/24 05:26:27;;;;;;;7.95;1.33;;;;;;;;;;5007561;28;20480;-56
2023/04/24 05:28:54;;;;;;;8.65;1.58;;;;;;;;;;5008781;28;20026;-59
2023/04/24 05:31:21;;;;;;;8.65;1.60;;;;;;;;;;5006057;28;20083;-59
2023/04/24 05:33:47;;;;;;;9.05;1.48;;;;;;;;;;5007506;28;20030;-56
2023/04/24 05:36:14;;;;;;;9.73;1.30;;;;;;;;;;5007593;28;20098;-59
2023/04/24 05:38:41;;;;;;;6.75;1.48;;;;;;;;;;5006434;28;20042;-57
2023/04/24 05:41:08;;;;;;;6.18;1.40;;;;;;;;;;5008255;28;20042;-55
2023/04/24 05:43:34;;;;;;;6.53;1.65;;;;;;;;;;5021354;28;20042;-56
2023/04/24 05:46:01;;;;;;;4.25;1.00;;;;;;;;;;5006865;28;20136;-57
2023/04/24 05:48:28;;;;;;;4.80;1.20;;;;;;;;;;5006681;28;20128;-56
2023/04/24 05:50:54;;;;;;;3.33;0.90;;;;;;;;;;5006595;28;20538;-56
2023/04/24 05:53:21;;;;;;;4.95;1.02;;;;;;;;;;5007107;28;20045;-58
2023/04/24 05:55:48;;;;;;;8.27;1.38;;;;;;;;;;5007600;28;20390;-54
2023/04/24 05:58:15;;;;;;;5.20;1.60;;;;;;;;;;5006743;28;20071;-55
2023/04/24 06:00:43;;;;;;;4.75;1.40;;;;;;;;;;5009661;28;20053;-56
2023/04/24 06:03:09;;;;;;;11.82;1.92;;;;;;;;;;5012719;28;20041;-53
2023/04/24 06:05:36;;;;;;;7.90;1.75;;;;;;;;;;5015471;28;20142;-58
2023/04/24 06:08:03;;;;;;;5.13;1.67;;;;;;;;;;5018933;28;20038;-56
2023/04/24 06:10:29;;;;;;;7.82;1.75;;;;;;;;;;5010947;28;20045;-59
2023/04/24 06:13:00;;;;;;;4.45;1.38;;;;;;;;;;5010600;28;20168;-54
2023/04/24 06:15:28;;;;;;;3.83;1.02;;;;;;;;;;5010795;28;20041;-53
2023/04/24 06:17:55;;;;;;;6.07;1.38;;;;;;;;;;5010823;28;20116;-56
2023/04/24 06:20:22;;;;;;;4.10;1.15;;;;;;;;;;5010266;28;20133;-56
2023/04/24 06:22:48;;;;;;;5.15;1.33;;;;;;;;;;5010469;28;20668;-55
2023/04/24 06:25:15;;;;;;;4.65;1.20;;;;;;;;;;5009530;28;20140;-55
2023/04/24 06:27:42;;;;;;;7.88;1.60;;;;;;;;;;5007103;28;20095;-56
2023/04/24 06:30:09;;;;;;;4.60;1.30;;;;;;;;;;5010024;28;20129;-56
2023/04/24 06:32:36;;;;;;;8.27;1.45;;;;;;;;;;5008915;28;20045;-57
2023/04/24 06:35:02;;;;;;;6.93;1.40;;;;;;;;;;5009750;28;20038;-57
2023/04/24 06:37:29;;;;;;;6.20;1.30;;;;;;;;;;5007731;28;20133;-52
2023/04/24 06:39:56;;;;;;;5.65;1.60;;;;;;;;;;5009147;28;20054;-56
2023/04/24 06:42:24;;;;;;;5.10;1.33;;;;;;;;;;5009137;28;20034;-57
2023/04/24 06:44:51;;;;;;;3.30;1.00;;;;;;;;;;5009503;28;20185;-56
2023/04/24 06:47:18;;;;;;;7.45;1.90;;;;;;;;;;5008829;28;20143;-54
2023/04/24 06:49:45;;;;;;;4.45;1.50;;;;;;;;;;5008510;28;20034;-55
2023/04/24 06:52:11;;;;;;;4.45;1.20;;;;;;;;;;5009449;28;20047;-54
2023/04/24 06:54:38;;;;;;;9.20;0.88;;;;;;;;;;5009779;28;20072;-53
2023/04/24 06:57:05;;;;;;;7.65;1.42;;;;;;;;;;5007661;28;20104;-55
2023/04/24 06:59:31;;;;;;;9.27;1.30;;;;;;;;;;5008787;28;20617;-54
2023/04/24 07:01:58;;;;;;;2.90;1.02;;;;;;;;;;5009197;28;20053;-52
2023/04/24 07:04:25;;;;;;;5.53;1.20;;;;;;;;;;5008344;28;20050;-52
2023/04/24 07:06:54;;;;;;;5.13;0.95;;;;;;;;;;5009274;28;20038;-56
2023/04/24 07:09:21;;;;;;;2.70;0.75;;;;;;;;;;5007629;28;20056;-55
2023/04/24 07:11:49;;;;;;;6.22;1.10;;;;;;;;;;5010113;28;20042;-55
2023/04/24 07:14:15;;;;;;;8.85;1.20;;;;;;;;;;5009657;28;20187;-57
2023/04/24 07:16:42;;;;;;;7.90;1.08;;;;;;;;;;5023434;28;20052;-54
2023/04/24 07:19:09;;;;;;;5.00;1.00;;;;;;;;;;5009338;28;20041;-56
2023/04/24 07:21:36;;;;;;;4.70;1.10;;;;;;;;;;5009538;28;20041;-55
2023/04/24 07:24:03;;;;;;;4.15;0.90;;;;;;;;;;5008852;28;20120;-55
2023/04/24 07:26:30;;;;;;;2.97;0.82;;;;;;;;;;5007543;28;20065;-53
2023/04/24 07:28:57;;;;;;;4.28;1.00;;;;;;;;;;5008532;28;20052;-56
2023/04/24 07:31:24;;;;;;;7.60;1.20;;;;;;;;;;5008913;28;20041;-53
2023/04/24 07:33:50;;;;;;;9.13;2.00;;;;;;;;;;5022985;28;20038;-57
2023/04/24 07:36:18;;;;;;;6.45;1.55;;;;;;;;;;5010466;28;20069;-55
2023/04/24 07:38:46;;;;;;;5.40;1.38;;;;;;;;;;5009665;28;20033;-56
2023/04/24 07:41:13;;;;;;;6.40;1.60;;;;;;;;;;5008694;28;20050;-56
2023/04/24 07:43:40;;;;;;;3.97;1.33;;;;;;;;;;5007465;28;20042;-54
2023/04/24 07:46:07;;;;;;;5.53;1.83;;;;;;;;;;5022118;28;20045;-55
2023/04/24 07:48:34;;;;;;;6.50;2.60;;;;;;;;;;5007198;28;20060;-55
2023/04/24 07:51:01;;;;;;;9.90;2.80;;;;;;;;;;5008855;28;20439;-57
2023/04/24 07:53:27;;;;;;;10.68;1.98;;;;;;;;;;5008066;28;20037;-54
2023/04/24 07:55:57;;;;;;;4.25;1.38;;;;;;;;;;5007052;28;20046;-55
2023/04/24 07:58:24;;;;;;;4.38;1.30;;;;;;;;;;5007407;28;20042;-53
2023/04/24 08:00:50;;;;;;;6.35;1.23;;;;;;;;;;5008066;28;20037;-56
2023/04/24 08:03:19;;;;;;;4.35;1.10;;;;;;;;;;5007363;28;20042;-56
2023/04/24 08:05:46;;;;;;;5.32;1.20;;;;;;;;;;5006466;28;20073;-55
2023/04/24 08:08:12;;;;;;;4.28;1.30;;;;;;;;;;5009462;28;20141;-55
2023/04/24 08:10:39;;;;;;;8.70;1.63;;;;;;;;;;5006878;28;21094;-56
2023/04/24 08:13:06;;;;;;;5.43;1.42;;;;;;;;;;5008915;28;20128;-58
2023/04/24 08:15:32;;;;;;;4.70;1.48;;;;;;;;;;5007540;28;20161;-56
2023/04/24 08:17:59;;;;;;;5.05;1.60;;;;;;;;;;5006305;28;20045;-55
2023/04/24 08:20:26;;;;;;;11.15;1.80;;;;;;;;;;5009480;28;20037;-56
2023/04/24 08:22:53;;;;;;;4.93;1.30;;;;;;;;;;5008344;28;20061;-54
2023/04/24 08:25:20;;;;;;;4.10;1.33;;;;;;;;;;5007890;28;20064;-55
2023/04/24 08:27:47;;;;;;;5.47;1.75;;;;;;;;;;5006591;28;20033;-51
2023/04/24 08:30:13;;;;;;;5.68;1.58;;;;;;;;;;5007565;28;20088;-55
2023/04/24 08:32:40;;;;;;;4.75;1.42;;;;;;;;;;5007129;28;20471;-55
2023/04/24 08:35:09;;;;;;;7.80;1.52;;;;;;;;;;5007750;28;20144;-56
2023/04/24 08:37:36;;;;;;;6.75;1.67;;;;;;;;;;5022607;28;20041;-53
2023/04/24 08:40:07;;;;;;;5.07;1.08;;;;;;;;;;5008110;28;20069;-53
2023/04/24 08:42:35;;;;;;;6.60;1.58;;;;;;;;;;5008017;28;20211;-54
2023/04/24 08:45:02;;;;;;;3.03;0.90;;;;;;;;;;5007689;28;20061;-57
2023/04/24 08:47:29;;;;;;;4.45;1.23;;;;;;;;;;5006912;28;20048;-52
2023/04/24 08:49:56;;;;;;;5.47;1.15;;;;;;;;;;5008987;28;20065;-56
2023/04/24 08:52:43;;;;;;;6.00;1.38;;;;;;;;;;5008428;28;20048;-57
2023/04/24 08:55:10;;;;;;;3.22;1.02;;;;;;;;;;5026724;28;20055;-56
2023/04/24 08:57:39;;;;;;;4.10;1.17;;;;;;;;;;5026224;28;20093;-57
2023/04/24 09:00:07;;;;;;;4.80;0.90;;;;;;;;;;5007573;28;20129;-56
2023/04/24 09:02:34;;;;;;;5.72;0.93;;;;;;;;;;5022342;28;20041;-55
2023/04/24 09:05:01;;;;;;;6.43;1.17;;;;;;;;;;5022603;28;20095;-56
2023/04/24 09:07:28;;;;;;;5.60;1.00;;;;;;;;;;5020943;28;20041;-57
2023/04/24 09:09:55;;;;;;;3.92;1.15;;;;;;;;;;5022820;28;20037;-57
2023/04/24 09:12:22;;;;;;;4.03;0.90;;;;;;;;;;5023350;28;20059;-56
2023/04/24 09:14:49;;;;;;;3.38;0.80;;;;;;;;;;5023611;28;20396;-55
2023/04/24 09:17:15;;;;;;;2.83;0.70;;;;;;;;;;5022996;28;20960;-54
2023/04/24 09:19:42;;;;;;;3.97;1.00;;;;;;;;;;5022627;28;20471;-56
2023/04/24 09:22:09;;;;;;;2.88;0.80;;;;;;;;;;5023579;28;20048;-56
2023/04/24 09:24:36;;;;;;;3.08;0.80;;;;;;;;;;5022352;28;20523;-56
2023/04/24 09:27:03;;;;;;;2.38;0.70;;;;;;;;;;5004454;28;20499;-56
2023/04/24 09:29:31;;;;;;;2.45;0.70;;;;;;;;;;5005684;28;20038;-57
2023/04/24 09:31:58;;;;;;;4.72;1.10;;;;;;;;;;5022187;28;20049;-56
2023/04/24 09:34:25;;;;;;;5.15;0.93;;;;;;;;;;5006343;28;20076;-55
2023/04/24 09:36:53;;;;;;;5.30;1.02;;;;;;;;;;5009504;28;20230;-53
2023/04/24 09:39:20;;;;;;;3.05;0.90;;;;;;;;;;5011523;28;20041;-56
2023/04/24 09:41:47;;;;;;;2.65;0.82;;;;;;;;;;5011277;28;20125;-55
2023/04/24 09:44:14;;;;;;;5.97;0.95;;;;;;;;;;5011425;28;20046;-54
2023/04/24 09:46:42;;;;;;;3.17;0.90;;;;;;;;;;5009290;28;20056;-55
2023/04/24 09:49:10;;;;;;;4.88;0.80;;;;;;;;;;5011484;28;20209;-56
2023/04/24 09:51:38;;;;;;;2.85;0.95;;;;;;;;;;5009367;28;20124;-55
2023/04/24 09:54:05;;;;;;;7.35;0.90;;;;;;;;;;5012363;28;20068;-57
2023/04/24 09:56:35;;;;;;;3.83;1.00;;;;;;;;;;5009668;28;20041;-55
2023/04/24 09:59:06;;;;;;;4.80;1.38;;;;;;;;;;5010218;28;20577;-55
2023/04/24 10:01:33;;;;;;;3.88;0.90;;;;;;;;;;5010157;28;20049;-55
2023/04/24 10:04:00;;;;;;;3.33;0.98;;;;;;;;;;5010778;28;20525;-57
2023/04/24 10:06:36;;;;;;;7.28;1.65;;;;;;;;;;5007132;28;20061;-56
2023/04/24 10:09:03;;;;;;;8.75;2.50;;;;;;;;;;5008001;28;20109;-55
2023/04/24 10:11:30;;;;;;;4.70;1.65;;;;;;;;;;5007145;28;20038;-57
2023/04/24 10:13:57;;;;;;;4.35;0.85;;;;;;;;;;5009985;28;20655;-56
2023/04/24 10:16:26;;;;;;;3.53;1.00;;;;;;;;;;5009153;28;20041;-52
2023/04/24 10:18:53;;;;;;;3.33;0.80;;;;;;;;;;5009700;28;20076;-56
2023/04/24 10:21:20;;;;;;;4.50;0.93;;;;;;;;;;5008604;28;20037;-55
2023/04/24 10:23:47;;;;;;;5.55;1.00;;;;;;;;;;5008536;28;20214;-56
2023/04/24 10:26:17;;;;;;;4.47;1.05;;;;;;;;;;5008580;28;20053;-55
2023/04/24 10:28:47;;;;;;;5.43;1.15;;;;;;;;;;5010026;28;20582;-53
2023/04/24 10:31:14;;;;;;;2.88;1.00;;;;;;;;;;5024527;28;20466;-55
2023/04/24 10:33:42;;;;;;;3.10;0.80;;;;;;;;;;5008218;28;20384;-54
2023/04/24 10:36:13;;;;;;;3.85;1.05;;;;;;;;;;5008775;28;20041;-56
2023/04/24 10:38:41;;;;;;;4.10;1.00;;;;;;;;;;5008706;28;20107;-56
2023/04/24 10:41:09;;;;;;;3.42;1.00;;;;;;;;;;5009247;28;20057;-55
2023/04/24 10:43:36;;;;;;;3.58;1.00;;;;;;;;;;5008952;28;20077;-54
2023/04/24 10:46:07;;;;;;;3.78;0.80;;;;;;;;;;5008153;28;20066;-53
2023/04/24 10:48:34;;;;;;;4.53;0.60;;;;;;;;;;5008315;28;20045;-56
2023/04/24 10:51:02;;;;;;;4.18;0.88;;;;;;;;;;5008096;28;20042;-54
2023/04/24 10:53:29;;;;;;;4.65;0.80;;;;;;;;;;5009764;28;20121;-56
2023/04/24 10:55:59;;;;;;;3.08;0.90;;;;;;;;;;5007915;28;20041;-55
2023/04/24 10:58:36;;;;;;;2.22;0.60;;;;;;;;;;5007943;28;20037;-52
2023/04/24 11:01:02;;;;;;;4.10;0.70;;;;;;;;;;5008622;28;20150;-57
2023/04/24 11:03:30;;;;;;;2.42;0.80;;;;;;;;;;5009482;28;20167;-55
2023/04/24 11:05:58;;;;;;;7.40;1.20;;;;;;;;;;5007540;28;20044;-55
2023/04/24 11:08:26;;;;;;;7.30;0.98;;;;;;;;;;5009683;28;20045;-53
2023/04/24 11:11:01;;;;;;;8.95;1.10;;;;;;;;;;5008903;28;20042;-57
2023/04/24 11:13:48;;;;;;;10.18;1.35;;;;;;;;;;5009127;28;20049;-56
2023/04/24 11:16:24;;;;;;;4.28;1.27;;;;;;;;;;5005377;28;20168;-54
2023/04/24 11:19:00;;;;;;;4.13;0.95;;;;;;;;;;5001083;28;20045;-57
2023/04/24 11:21:31;;;;;;;6.15;0.90;;;;;;;;;;5008426;28;20137;-55
2023/04/24 11:23:59;;;;;;;4.15;1.00;;;;;;;;;;5008317;28;20045;-56
2023/04/24 11:26:32;;;;;;;6.05;0.90;;;;;;;;;;5006844;28;20391;-56
2023/04/24 11:29:08;;;;;;;5.63;1.05;;;;;;;;;;5008703;28;20498;-58
2023/04/24 11:31:49;;;;;;;2.80;0.90;;;;;;;;;;5008919;28;20131;-57
2023/04/24 11:34:16;;;;;;;6.97;1.13;;;;;;;;;;5008843;28;20041;-54
2023/04/24 11:36:49;;;;;;;9.00;1.45;;;;;;;;;;5007398;28;20810;-59
2023/04/24 11:39:15;;;;;;;7.40;1.40;;;;;;;;;;5008957;28;20037;-56
2023/04/24 11:41:42;;;;;;;5.18;1.10;;;;;;;;;;5007357;28;20076;-54
2023/04/24 11:44:11;;;;;;;6.22;0.90;;;;;;;;;;5008226;28;20049;-57
2023/04/24 11:46:39;;;;;;;11.00;1.40;;;;;;;;;;5007445;28;20088;-55
2023/04/24 11:49:06;;;;;;;6.53;1.60;;;;;;;;;;5008486;28;20046;-56
2023/04/24 11:51:33;;;;;;;6.47;1.45;;;;;;;;;;5006420;28;20728;-54
2023/04/24 11:54:00;;;;;;;5.07;1.05;;;;;;;;;;5011360;28;20179;-55
2023/04/24 11:56:27;;;;;;;5.60;1.50;;;;;;;;;;5007250;28;20125;-55
2023/04/24 11:58:54;;;;;;;4.03;1.45;;;;;;;;;;5007918;28;20497;-53
2023/04/24 12:01:21;;;;;;;8.57;1.60;;;;;;;;;;5005883;28;20132;-57
2023/04/24 12:03:48;;;;;;;6.68;1.30;;;;;;;;;;5007650;28;20130;-52
2023/04/24 12:06:15;;;;;;;10.30;1.48;;;;;;;;;;5007271;28;20138;-57
2023/04/24 12:08:42;;;;;;;4.90;1.30;;;;;;;;;;5008280;28;20132;-55
2023/04/24 12:11:09;;;;;;;6.10;1.20;;;;;;;;;;5008438;28;20045;-55
2023/04/24 12:13:36;;;;;;;6.20;1.50;;;;;;;;;;5023593;28;20137;-56
2023/04/24 12:16:07;;;;;;;6.40;1.65;;;;;;;;;;5010110;28;20037;-55
2023/04/24 12:18:34;;;;;;;6.57;1.70;;;;;;;;;;5022011;28;20045;-56
2023/04/24 12:21:17;;;;;;;7.20;1.35;;;;;;;;;;5009162;28;20052;-56
2023/04/24 12:23:45;;;;;;;3.67;1.20;;;;;;;;;;5007312;28;20050;-58
2023/04/24 12:26:12;;;;;;;8.60;1.75;;;;;;;;;;5008536;28;20498;-54
2023/04/24 12:28:39;;;;;;;11.52;1.90;;;;;;;;;;5008367;28;20095;-61
2023/04/24 12:31:07;;;;;;;7.13;1.92;;;;;;;;;;5008080;28;20141;-59
2023/04/24 12:33:35;;;;;;;6.63;1.58;;;;;;;;;;5009598;28;20045;-57
2023/04/24 12:36:01;;;;;;;11.43;1.40;;;;;;;;;;5008191;28;20060;-59
2023/04/24 12:38:39;;;;;;;10.77;1.60;;;;;;;;;;5007693;28;20100;-63
2023/04/24 12:41:07;;;;;;;8.38;1.48;;;;;;;;;;5008542;28;20070;-61
2023/04/24 12:43:34;;;;;;;4.78;1.10;;;;;;;;;;5008473;28;20047;-61
2023/04/24 12:46:00;;;;;;;3.67;1.00;;;;;;;;;;5011196;28;20041;-60
2023/04/24 12:48:27;;;;;;;5.72;1.15;;;;;;;;;;5009892;28;20445;-61
2023/04/24 12:51:01;;;;;;;9.52;1.20;;;;;;;;;;5025799;28;20061;-61
2023/04/24 12:53:29;;;;;;;4.50;1.27;;;;;;;;;;5010910;28;20052;-62
2023/04/24 12:55:56;;;;;;;4.65;0.90;;;;;;;;;;5010339;28;20056;-62
2023/04/24 12:58:22;;;;;;;6.50;1.02;;;;;;;;;;5008403;28;20034;-61
2023/04/24 13:00:49;;;;;;;4.35;1.08;;;;;;;;;;5027304;28;20045;-60
2023/04/24 13:03:16;;;;;;;3.03;1.00;;;;;;;;;;5032724;28;20048;-59
2023/04/24 13:05:44;;;;;;;8.88;1.20;;;;;;;;;;5033098;28;20045;-60
2023/04/24 13:08:12;;;;;;;5.57;1.17;;;;;;;;;;5015776;28;20046;-58
2023/04/24 13:10:40;;;;;;;5.18;1.25;;;;;;;;;;5007461;28;20041;-59
2023/04/24 13:13:07;;;;;;;7.85;1.75;;;;;;;;;;5009560;28;20071;-59
2023/04/24 13:15:34;;;;;;;9.15;1.48;;;;;;;;;;5008530;28;20060;-58
2023/04/24 13:18:00;;;;;;;4.95;1.17;;;;;;;;;;5008716;28;20391;-60
2023/04/24 13:20:27;;;;;;;6.70;1.05;;;;;;;;;;5021773;28;20060;-57
2023/04/24 13:22:54;;;;;;;3.55;1.10;;;;;;;;;;5009185;28;20041;-56
2023/04/24 13:25:22;;;;;;;5.20;1.20;;;;;;;;;;5007654;28;20055;-56
2023/04/24 13:27:49;;;;;;;7.78;1.20;;;;;;;;;;4998891;28;20496;-57
2023/04/24 13:30:16;;;;;;;15.07;2.03;;;;;;;;;;5008984;28;20041;-56
2023/04/24 13:32:42;;;;;;;8.10;1.30;;;;;;;;;;5008172;28;20049;-60
2023/04/24 13:35:09;;;;;;;7.95;1.05;;;;;;;;;;5008822;28;20038;-62
2023/04/24 13:37:36;;;;;;;7.93;0.90;;;;;;;;;;5024339;28;20124;-59
2023/04/24 13:40:05;;;;;;;5.07;1.10;;;;;;;;;;5021981;28;20046;-57
2023/04/24 13:42:32;;;;;;;6.47;1.02;;;;;;;;;;5004564;28;20053;-57
2023/04/24 13:44:59;;;;;;;5.78;1.10;;;;;;;;;;5008899;28;20515;-55
2023/04/24 13:47:26;;;;;;;3.90;1.00;;;;;;;;;;5009401;28;20105;-56
2023/04/24 13:49:54;;;;;;;4.38;1.10;;;;;;;;;;5009774;28;20044;-57
2023/04/24 13:52:20;;;;;;;8.18;1.40;;;;;;;;;;5005515;28;20045;-57
2023/04/24 13:54:47;;;;;;;6.32;1.27;;;;;;;;;;5006588;28;20042;-56
2023/04/24 13:57:15;;;;;;;7.80;1.33;;;;;;;;;;5004817;28;20463;-56
2023/04/24 13:59:42;;;;;;;7.90;1.48;;;;;;;;;;5002832;28;20125;-56
2023/04/24 14:02:08;;;;;;;6.35;1.23;;;;;;;;;;4999641;28;20077;-55
2023/04/24 14:04:35;;;;;;;3.70;1.10;;;;;;;;;;4997787;28;20038;-54
2023/04/24 14:07:02;;;;;;;13.52;1.48;;;;;;;;;;5001789;28;20042;-56
2023/04/24 14:09:29;;;;;;;7.78;1.30;;;;;;;;;;5000903;28;20045;-54
2023/04/24 14:11:55;;;;;;;13.07;1.83;;;;;;;;;;5001402;28;20048;-54
2023/04/24 14:14:22;;;;;;;12.20;1.50;;;;;;;;;;5005673;28;20037;-55
2023/04/24 14:16:49;;;;;;;5.50;1.30;;;;;;;;;;5021064;28;20034;-53
2023/04/24 14:19:15;;;;;;;9.18;1.33;;;;;;;;;;5007522;28;20123;-55
2023/04/24 14:21:42;;;;;;;4.43;1.05;;;;;;;;;;5006968;28;20897;-55
2023/04/24 14:24:09;;;;;;;6.35;0.93;;;;;;;;;;5011405;28;20041;-55
2023/04/24 14:26:38;;;;;;;7.90;1.08;;;;;;;;;;5011412;28;20417;-53
2023/04/24 14:29:05;;;;;;;5.32;1.25;;;;;;;;;;5011229;28;20255;-58
2023/04/24 14:31:32;;;;;;;5.45;1.02;;;;;;;;;;5008789;28;20553;-56
2023/04/24 14:33:59;;;;;;;5.18;0.90;;;;;;;;;;5010421;28;20037;-54
2023/04/24 14:36:25;;;;;;;3.58;0.75;;;;;;;;;;5025832;28;20037;-57
2023/04/24 14:38:52;;;;;;;3.40;0.75;;;;;;;;;;5009872;28;20120;-58
2023/04/24 14:41:19;;;;;;;3.00;0.70;;;;;;;;;;5007736;28;20454;-56
2023/04/24 14:43:45;;;;;;;3.25;0.55;;;;;;;;;;5008483;28;20659;-57